Terminal Aerodrome Forecast
Issued by NWS North Platte, NE

Home | Current Version | Previous Version | Text Only | Print | Product List | Glossary Off
Versions: 1 2 3 4 5 6 7 8 9 10 11 12 13 14 15 16 17 18 19 20 21 22 23 24 25 26 27 28 29 30 31 32

000
FTUS43 KLBF 150100 AAA
TAFVTN
TAF AMD
KVTN 150119Z 1501/1524 35017G24KT 4SM -SN BR OVC012
     FM150500 34017G26KT 3/4SM -SN BR BKN008 OVC011
     FM151200 34017G25KT 1/2SM SN BLSN VV006
     FM152000 34017G25KT 1SM -SN BLSN OVC008=

USA.gov is the U.S. government's official web portal to all federal, state and local government web resources and services.